createdAt,value
2018-09-06T00:00:05.995Z,15.80
2018-09-06T00:02:40.295Z,15.80
2018-09-06T00:05:14.562Z,15.70
2018-09-06T00:07:48.677Z,15.80
2018-09-06T00:10:23.069Z,15.70
2018-09-06T00:12:57.383Z,15.70
2018-09-06T00:15:32.792Z,15.70
2018-09-06T00:18:07.024Z,15.70
2018-09-06T00:20:41.206Z,15.70
2018-09-06T00:23:15.529Z,15.70
2018-09-06T00:25:49.926Z,15.70
2018-09-06T00:28:24.456Z,15.60
2018-09-06T00:30:58.625Z,15.60
2018-09-06T00:33:33.252Z,15.60
2018-09-06T00:36:08.081Z,15.50
2018-09-06T00:38:42.368Z,15.50
2018-09-06T00:41:16.607Z,15.50
2018-09-06T00:43:50.880Z,15.40
2018-09-06T00:46:26.048Z,15.40
2018-09-06T00:49:00.503Z,15.30
2018-09-06T00:51:35.105Z,15.30
2018-09-06T00:54:13.771Z,15.30
2018-09-06T00:56:49.520Z,15.30
2018-09-06T00:59:25.327Z,15.30
2018-09-06T01:01:59.645Z,15.30
2018-09-06T01:04:33.858Z,15.30
2018-09-06T01:07:08.340Z,15.30
2018-09-06T01:09:42.644Z,15.20
2018-09-06T01:12:17.051Z,15.20
2018-09-06T01:14:51.486Z,15.10
2018-09-06T01:17:25.821Z,15.10
2018-09-06T01:20:00.190Z,15.10
2018-09-06T01:22:34.573Z,15.00
2018-09-06T01:25:09.739Z,15.10
2018-09-06T01:27:45.110Z,15.00
2018-09-06T01:30:19.522Z,15.00
2018-09-06T01:32:53.833Z,15.00
2018-09-06T01:35:28.085Z,15.00
2018-09-06T01:38:02.376Z,14.90
2018-09-06T01:40:36.609Z,14.90
2018-09-06T01:43:10.921Z,14.90
2018-09-06T01:45:45.223Z,14.90
2018-09-06T01:48:19.580Z,14.90
2018-09-06T01:50:54.057Z,14.80
2018-09-06T01:53:29.198Z,14.80
2018-09-06T01:56:03.401Z,14.80
2018-09-06T01:58:37.715Z,14.70
2018-09-06T02:01:12.025Z,14.70
2018-09-06T02:03:47.171Z,14.70
2018-09-06T02:06:21.914Z,14.60
2018-09-06T02:08:58.276Z,14.60
2018-09-06T02:11:33.409Z,14.50
2018-09-06T02:14:09.004Z,14.50
2018-09-06T02:16:43.385Z,14.50
2018-09-06T02:19:17.694Z,14.50
2018-09-06T02:21:51.977Z,14.50
2018-09-06T02:24:26.174Z,14.50
2018-09-06T02:27:00.462Z,14.50
2018-09-06T02:29:34.664Z,14.50
2018-09-06T02:32:08.873Z,14.50
2018-09-06T02:34:43.144Z,14.40
2018-09-06T02:37:17.497Z,14.40
2018-09-06T02:39:51.849Z,14.40
2018-09-06T02:42:27.256Z,14.40
2018-09-06T02:45:02.308Z,14.30
2018-09-06T02:47:40.937Z,14.30
2018-09-06T02:51:20.415Z,14.30
2018-09-06T02:53:54.769Z,14.30
2018-09-06T02:56:28.897Z,14.20
2018-09-06T02:59:03.130Z,14.10
2018-09-06T03:01:37.349Z,14.10
2018-09-06T03:04:11.658Z,14.10
2018-09-06T03:06:45.784Z,14.10
2018-09-06T03:09:21.351Z,14.00
2018-09-06T03:11:58.561Z,14.00
2018-09-06T03:14:33.343Z,13.90
2018-09-06T03:17:07.662Z,13.90
2018-09-06T03:19:42.993Z,13.90
2018-09-06T03:22:17.898Z,13.90
2018-09-06T03:24:52.864Z,13.80
2018-09-06T03:27:26.975Z,13.80
2018-09-06T03:30:01.325Z,13.80
2018-09-06T03:32:35.580Z,13.70
2018-09-06T03:35:10.455Z,13.70
2018-09-06T03:37:44.760Z,13.70
2018-09-06T03:40:19.153Z,13.60
2018-09-06T03:42:53.364Z,13.60
2018-09-06T03:45:27.616Z,13.60
2018-09-06T03:48:02.544Z,13.60
2018-09-06T03:50:36.695Z,13.60
2018-09-06T03:53:10.993Z,13.50
2018-09-06T03:55:45.235Z,13.50
2018-09-06T03:58:20.570Z,13.50
2018-09-06T04:00:54.804Z,13.50
2018-09-06T04:03:29.016Z,13.40
2018-09-06T04:06:03.213Z,13.40
2018-09-06T04:08:37.472Z,13.40
2018-09-06T04:11:14.869Z,13.40
2018-09-06T04:13:49.525Z,13.30
2018-09-06T04:16:23.859Z,13.30
2018-09-06T04:18:58.150Z,13.30
2018-09-06T04:21:32.408Z,13.30
2018-09-06T04:24:06.654Z,13.20
2018-09-06T04:26:40.917Z,13.20
2018-09-06T04:29:15.206Z,13.20
2018-09-06T04:31:49.640Z,13.20
2018-09-06T04:34:23.929Z,13.20
2018-09-06T04:36:58.337Z,13.10
2018-09-06T04:39:32.632Z,13.20
2018-09-06T04:42:06.897Z,13.20
2018-09-06T04:44:41.293Z,13.20
2018-09-06T04:47:15.648Z,13.10
2018-09-06T04:49:49.889Z,13.10
2018-09-06T04:52:25.426Z,13.20
2018-09-06T04:54:59.593Z,13.20
2018-09-06T04:57:33.967Z,13.20
2018-09-06T05:00:08.443Z,13.20
2018-09-06T05:02:42.636Z,13.20
2018-09-06T05:05:16.974Z,13.20
2018-09-06T05:07:52.899Z,13.30
2018-09-06T05:10:27.086Z,13.30
2018-09-06T05:13:01.989Z,13.30
2018-09-06T05:15:36.275Z,13.40
2018-09-06T05:18:10.575Z,13.40
2018-09-06T05:20:45.502Z,13.40
2018-09-06T05:23:19.821Z,13.40
2018-09-06T05:25:54.184Z,13.50
2018-09-06T05:28:28.457Z,13.50
2018-09-06T05:31:02.864Z,13.50
2018-09-06T05:33:37.132Z,13.50
2018-09-06T05:36:11.553Z,13.60
2018-09-06T05:38:45.830Z,13.70
2018-09-06T05:41:20.184Z,13.70
2018-09-06T05:43:54.552Z,13.70
2018-09-06T05:46:29.020Z,13.80
2018-09-06T05:49:03.347Z,13.90
2018-09-06T05:51:37.640Z,13.90
2018-09-06T05:54:11.853Z,13.90
2018-09-06T05:56:46.376Z,14.00
2018-09-06T05:59:20.634Z,14.10
2018-09-06T06:01:54.888Z,14.20
2018-09-06T06:04:29.169Z,14.30
2018-09-06T06:07:03.722Z,14.40
2018-09-06T06:09:38.382Z,14.40
2018-09-06T06:12:13.388Z,14.50
2018-09-06T06:14:47.799Z,14.70
2018-09-06T06:17:22.070Z,14.70
2018-09-06T06:19:56.626Z,14.90
2018-09-06T06:22:30.843Z,15.00
2018-09-06T06:25:05.320Z,15.10
2018-09-06T06:27:42.412Z,15.20
2018-09-06T06:30:16.774Z,15.30
2018-09-06T06:32:51.090Z,15.40
2018-09-06T06:35:25.509Z,15.50
2018-09-06T06:37:59.820Z,15.60
2018-09-06T06:40:34.157Z,15.70
2018-09-06T06:43:08.600Z,15.80
2018-09-06T06:45:42.930Z,15.90
2018-09-06T06:48:17.089Z,16.00
2018-09-06T06:50:51.789Z,16.10
2018-09-06T06:53:26.749Z,16.20
2018-09-06T06:56:01.656Z,16.40
2018-09-06T06:58:36.314Z,16.40
2018-09-06T07:01:11.441Z,16.50
2018-09-06T07:03:46.566Z,16.60
2018-09-06T07:06:21.676Z,16.70
2018-09-06T07:08:56.051Z,16.80
2018-09-06T07:11:30.497Z,16.90
2018-09-06T07:14:04.722Z,17.10
2018-09-06T07:16:38.983Z,17.10
2018-09-06T07:19:13.339Z,17.10
2018-09-06T07:21:48.097Z,17.20
2018-09-06T07:24:22.303Z,17.40
2018-09-06T07:26:56.499Z,17.50
2018-09-06T07:29:30.725Z,17.60
2018-09-06T07:32:05.145Z,17.70
2018-09-06T07:34:39.313Z,17.80
2018-09-06T07:37:13.715Z,17.90
2018-09-06T07:39:48.771Z,18.00
2018-09-06T07:42:24.380Z,18.20
2018-09-06T07:44:58.680Z,18.30
2018-09-06T07:47:33.472Z,18.40
2018-09-06T07:50:08.263Z,18.60
2018-09-06T07:52:50.017Z,18.70
2018-09-06T07:55:25.347Z,18.80
2018-09-06T07:57:59.569Z,18.70
2018-09-06T08:00:33.748Z,18.80
2018-09-06T08:03:09.602Z,19.00
2018-09-06T08:05:45.031Z,19.10
2018-09-06T08:08:19.481Z,19.20
2018-09-06T08:10:53.596Z,19.30
2018-09-06T08:13:29.997Z,19.30
2018-09-06T08:16:04.174Z,19.40
2018-09-06T08:18:38.503Z,19.50
2018-09-06T08:21:12.881Z,19.60
2018-09-06T08:23:47.881Z,19.70
2018-09-06T08:26:23.146Z,19.90
2018-09-06T08:28:57.998Z,20.10
2018-09-06T08:31:32.156Z,20.20
2018-09-06T08:34:07.454Z,20.30
2018-09-06T08:36:42.932Z,20.40
2018-09-06T08:39:17.100Z,20.60
2018-09-06T08:41:51.524Z,20.70
2018-09-06T08:44:25.872Z,20.80
2018-09-06T08:47:00.238Z,20.90
2018-09-06T08:49:34.417Z,20.90
2018-09-06T08:52:09.416Z,21.10
2018-09-06T08:54:43.527Z,21.10
2018-09-06T08:57:17.953Z,21.30
2018-09-06T08:59:52.842Z,21.40
2018-09-06T09:02:33.318Z,21.50
2018-09-06T09:05:08.464Z,21.70
2018-09-06T09:07:43.437Z,21.70
2018-09-06T09:10:18.452Z,21.90
2018-09-06T09:12:53.323Z,22.00
2018-09-06T09:15:28.635Z,22.20
2018-09-06T09:18:03.436Z,22.30
2018-09-06T09:20:37.909Z,22.40
2018-09-06T09:23:13.031Z,22.50
2018-09-06T09:25:47.354Z,22.50
2018-09-06T09:28:21.576Z,22.60
2018-09-06T09:30:55.762Z,22.70
2018-09-06T09:33:30.158Z,22.80
2018-09-06T09:36:04.704Z,22.90
2018-09-06T09:38:39.065Z,22.90
2018-09-06T09:41:13.548Z,23.00
2018-09-06T09:43:48.528Z,23.20
2018-09-06T09:48:57.162Z,23.40
2018-09-06T09:51:31.480Z,23.60
2018-09-06T09:54:05.809Z,23.70
2018-09-06T09:56:41.023Z,23.80
2018-09-06T09:59:15.241Z,23.80
2018-09-06T10:01:55.362Z,24.00
2018-09-06T10:04:35.431Z,24.20
2018-09-06T10:07:16.608Z,24.20
2018-09-06T10:09:50.803Z,24.20
2018-09-06T10:12:26.372Z,24.10
2018-09-06T10:15:00.695Z,24.10
2018-09-06T10:17:35.105Z,24.20
2018-09-06T10:20:09.429Z,24.20
2018-09-06T10:22:43.805Z,24.40
2018-09-06T10:25:18.087Z,24.60
2018-09-06T10:27:54.890Z,24.90
2018-09-06T10:30:29.129Z,25.00
2018-09-06T10:33:04.232Z,25.10
2018-09-06T10:35:38.672Z,25.30
2018-09-06T10:38:13.068Z,25.40
2018-09-06T10:40:47.508Z,25.50
2018-09-06T10:43:21.880Z,25.40
2018-09-06T10:45:56.107Z,25.50
2018-09-06T10:48:30.347Z,25.80
2018-09-06T10:51:04.660Z,26.00
2018-09-06T10:53:39.952Z,26.10
2018-09-06T10:56:14.236Z,26.20
2018-09-06T10:58:48.451Z,26.40
2018-09-06T11:01:23.997Z,26.50
2018-09-06T11:03:58.616Z,26.60
2018-09-06T11:06:32.881Z,26.40
2018-09-06T11:09:07.198Z,26.60
2018-09-06T11:11:41.431Z,26.70
2018-09-06T11:14:16.744Z,26.80
2018-09-06T11:16:51.147Z,26.80
2018-09-06T11:19:29.182Z,26.90
2018-09-06T11:22:03.902Z,26.90
2018-09-06T11:24:38.691Z,26.80
2018-09-06T11:27:12.824Z,26.80
2018-09-06T11:29:47.792Z,26.80
2018-09-06T11:32:22.022Z,26.80
2018-09-06T11:34:56.277Z,27.20
2018-09-06T11:37:34.754Z,27.40
2018-09-06T11:40:09.143Z,27.50
2018-09-06T11:42:43.302Z,27.70
2018-09-06T11:45:17.628Z,28.00
2018-09-06T11:47:51.910Z,28.10
2018-09-06T11:50:28.645Z,28.10
2018-09-06T11:53:02.903Z,28.00
2018-09-06T11:55:37.683Z,28.10
2018-09-06T11:58:11.940Z,28.20
2018-09-06T12:00:47.221Z,28.60
2018-09-06T12:03:21.553Z,29.00
2018-09-06T12:05:58.437Z,29.30
2018-09-06T12:08:32.652Z,29.60
2018-09-06T12:11:07.623Z,29.80
2018-09-06T12:13:41.982Z,30.20
2018-09-06T12:16:16.216Z,30.40
2018-09-06T12:18:50.631Z,30.40
2018-09-06T12:21:25.592Z,30.10
2018-09-06T12:24:00.864Z,30.50
2018-09-06T12:26:35.664Z,31.10
2018-09-06T12:29:09.993Z,31.60
2018-09-06T12:31:44.366Z,31.80
2018-09-06T12:34:18.689Z,32.10
2018-09-06T12:36:53.812Z,32.10
2018-09-06T12:39:28.176Z,31.90
2018-09-06T12:42:04.630Z,31.70
2018-09-06T12:44:39.123Z,31.60
2018-09-06T12:47:13.377Z,31.50
2018-09-06T12:49:48.136Z,31.20
2018-09-06T12:52:22.534Z,30.90
2018-09-06T12:54:56.952Z,30.50
2018-09-06T12:57:31.294Z,30.40
2018-09-06T13:00:05.664Z,30.30
2018-09-06T13:02:40.240Z,30.30
2018-09-06T13:05:14.978Z,30.20
2018-09-06T13:07:49.324Z,29.90
2018-09-06T13:10:23.477Z,29.80
2018-09-06T13:12:57.869Z,29.80
2018-09-06T13:15:33.635Z,29.90
2018-09-06T13:18:08.038Z,30.00
2018-09-06T13:20:44.579Z,30.30
2018-09-06T13:23:18.984Z,30.70
2018-09-06T13:25:53.383Z,31.40
2018-09-06T13:28:28.172Z,32.20
2018-09-06T13:31:02.964Z,32.60
2018-09-06T13:33:38.679Z,32.60
2018-09-06T13:36:13.006Z,31.70
2018-09-06T13:38:47.462Z,30.90
2018-09-06T13:41:22.064Z,30.30
2018-09-06T13:43:58.862Z,29.90
2018-09-06T13:46:33.047Z,29.50
2018-09-06T13:49:08.320Z,29.20
2018-09-06T13:51:43.293Z,28.70
2018-09-06T13:54:18.349Z,28.40
2018-09-06T13:56:53.522Z,27.10
2018-09-06T13:59:27.644Z,25.60
2018-09-06T14:02:02.723Z,24.40
2018-09-06T14:04:36.942Z,23.10
2018-09-06T14:07:11.100Z,22.30
2018-09-06T14:09:46.625Z,22.10
2018-09-06T14:12:20.913Z,21.80
2018-09-06T14:14:55.489Z,21.40
2018-09-06T14:17:33.359Z,21.20
2018-09-06T14:20:08.466Z,21.10
2018-09-06T14:22:43.010Z,21.10
2018-09-06T14:25:17.302Z,21.10
2018-09-06T14:27:52.037Z,21.10
2018-09-06T14:30:26.145Z,21.30
2018-09-06T14:33:00.555Z,21.30
2018-09-06T14:35:35.889Z,21.40
2018-09-06T14:38:10.645Z,21.20
2018-09-06T14:40:44.993Z,21.10
2018-09-06T14:43:19.316Z,21.00
2018-09-06T14:45:54.142Z,20.90
2018-09-06T14:48:29.185Z,20.90
2018-09-06T14:51:03.519Z,20.80
2018-09-06T14:53:37.878Z,20.80
2018-09-06T14:56:12.478Z,20.80
2018-09-06T14:58:46.913Z,21.10
2018-09-06T15:01:21.216Z,22.10
2018-09-06T15:03:55.678Z,23.70
2018-09-06T15:06:30.989Z,25.20
2018-09-06T15:09:07.096Z,24.70
2018-09-06T15:11:41.507Z,25.50
2018-09-06T15:14:15.847Z,26.80
2018-09-06T15:16:50.267Z,26.40
2018-09-06T15:19:24.651Z,27.30
2018-09-06T15:21:58.768Z,27.80
2018-09-06T15:24:33.339Z,28.00
2018-09-06T15:27:08.475Z,25.70
2018-09-06T15:29:42.722Z,25.10
2018-09-06T15:32:17.066Z,23.80
2018-09-06T15:34:52.461Z,22.90
2018-09-06T15:37:28.010Z,22.70
2018-09-06T15:40:02.417Z,22.50
2018-09-06T15:42:36.677Z,23.00
2018-09-06T15:45:10.993Z,23.20
2018-09-06T15:47:45.889Z,23.00
2018-09-06T15:50:20.232Z,22.60
2018-09-06T15:52:54.641Z,22.20
2018-09-06T15:55:28.927Z,22.00
2018-09-06T15:58:04.305Z,21.80
2018-09-06T16:00:38.757Z,21.60
2018-09-06T16:03:13.148Z,21.20
2018-09-06T16:05:47.774Z,21.10
2018-09-06T16:08:23.413Z,20.90
2018-09-06T16:10:57.624Z,20.70
2018-09-06T16:13:32.413Z,20.70
2018-09-06T16:16:06.811Z,20.70
2018-09-06T16:18:41.627Z,20.70
2018-09-06T16:21:16.543Z,20.70
2018-09-06T16:23:51.511Z,20.50
2018-09-06T16:26:25.974Z,20.50
2018-09-06T16:29:00.409Z,20.50
2018-09-06T16:31:35.016Z,20.30
2018-09-06T16:34:09.456Z,20.30
2018-09-06T16:36:44.002Z,20.20
2018-09-06T16:39:18.384Z,20.20
2018-09-06T16:41:53.286Z,20.20
2018-09-06T16:44:28.960Z,20.10
2018-09-06T16:47:03.331Z,20.10
2018-09-06T16:49:38.944Z,20.10
2018-09-06T16:52:13.176Z,20.10
2018-09-06T16:54:47.545Z,20.10
2018-09-06T16:57:22.088Z,20.10
2018-09-06T16:59:56.434Z,20.10
2018-09-06T17:02:31.724Z,19.90
2018-09-06T17:05:05.989Z,19.90
2018-09-06T17:07:40.247Z,19.90
2018-09-06T17:10:14.648Z,19.90
2018-09-06T17:12:48.940Z,19.80
2018-09-06T17:15:23.308Z,19.80
2018-09-06T17:17:57.665Z,19.80
2018-09-06T17:20:31.903Z,19.70
2018-09-06T17:23:06.322Z,19.70
2018-09-06T17:25:40.485Z,19.60
2018-09-06T17:28:15.684Z,19.60
2018-09-06T17:30:49.935Z,19.60
2018-09-06T17:33:24.267Z,19.50
2018-09-06T17:35:59.609Z,19.30
2018-09-06T17:38:33.913Z,19.20
2018-09-06T17:41:08.053Z,19.10
2018-09-06T17:43:42.303Z,19.00
2018-09-06T17:46:17.253Z,18.90
2018-09-06T17:48:51.715Z,18.90
2018-09-06T17:51:25.802Z,18.90
2018-09-06T17:53:59.869Z,18.80
2018-09-06T17:56:34.140Z,18.80
2018-09-06T17:59:09.386Z,18.70
2018-09-06T18:01:44.109Z,18.70
2018-09-06T18:04:19.368Z,18.70
2018-09-06T18:06:54.821Z,18.70
2018-09-06T18:09:29.016Z,18.70
2018-09-06T18:12:03.324Z,18.70
2018-09-06T18:14:37.504Z,18.60
2018-09-06T18:17:11.744Z,18.60
2018-09-06T18:19:45.976Z,18.60
2018-09-06T18:22:20.389Z,18.60
2018-09-06T18:24:54.711Z,18.60
2018-09-06T18:27:28.924Z,18.70
2018-09-06T18:30:03.325Z,18.70
2018-09-06T18:32:37.553Z,18.70
2018-09-06T18:35:12.412Z,18.80
2018-09-06T18:37:46.685Z,18.80
2018-09-06T18:40:21.034Z,18.70
2018-09-06T18:42:55.644Z,18.70
2018-09-06T18:45:29.860Z,18.70
2018-09-06T18:48:04.140Z,18.70
2018-09-06T18:50:38.584Z,18.60
2018-09-06T18:53:13.565Z,18.50
2018-09-06T18:55:48.848Z,18.40
2018-09-06T18:58:23.990Z,18.40
2018-09-06T19:00:58.147Z,18.30
2018-09-06T19:03:33.424Z,18.30
2018-09-06T19:06:08.507Z,18.20
2018-09-06T19:08:43.718Z,18.20
2018-09-06T19:11:19.300Z,18.20
2018-09-06T19:13:54.582Z,18.20
2018-09-06T19:16:28.807Z,18.20
2018-09-06T19:19:03.429Z,18.20
2018-09-06T19:21:37.781Z,18.20
2018-09-06T19:24:11.923Z,18.20
2018-09-06T19:26:46.833Z,18.20
2018-09-06T19:29:21.553Z,18.20
2018-09-06T19:31:56.231Z,18.10
2018-09-06T19:34:30.534Z,18.10
2018-09-06T19:37:04.933Z,18.00
2018-09-06T19:39:40.227Z,18.00
2018-09-06T19:42:15.140Z,18.00
2018-09-06T19:44:49.559Z,18.00
2018-09-06T19:47:23.934Z,18.00
2018-09-06T19:49:58.093Z,18.00
2018-09-06T19:52:32.390Z,18.00
2018-09-06T19:55:06.734Z,18.00
2018-09-06T19:57:40.881Z,18.00
2018-09-06T20:00:15.225Z,18.00
2018-09-06T20:02:49.556Z,18.00
2018-09-06T20:05:24.579Z,18.00
2018-09-06T20:07:58.908Z,18.00
2018-09-06T20:10:33.486Z,18.00
2018-09-06T20:13:07.901Z,18.00
2018-09-06T20:15:42.674Z,18.00
2018-09-06T20:18:17.097Z,18.00
2018-09-06T20:20:51.636Z,18.00
2018-09-06T20:23:25.833Z,18.00
2018-09-06T20:26:00.800Z,18.00
2018-09-06T20:28:35.565Z,18.00
2018-09-06T20:31:09.714Z,18.00
2018-09-06T20:33:43.950Z,18.00
2018-09-06T20:36:18.281Z,18.00
2018-09-06T20:38:52.643Z,18.00
2018-09-06T20:41:27.278Z,18.00
2018-09-06T20:44:01.570Z,18.00
2018-09-06T20:46:35.769Z,18.00
2018-09-06T20:49:10.185Z,18.00
2018-09-06T20:51:46.289Z,18.00
2018-09-06T20:54:20.426Z,18.00
2018-09-06T20:56:54.726Z,17.90
2018-09-06T20:59:28.962Z,17.90
2018-09-06T21:02:12.125Z,17.90
2018-09-06T21:04:47.737Z,17.90
2018-09-06T21:07:23.405Z,17.80
2018-09-06T21:09:57.941Z,17.80
2018-09-06T21:12:32.312Z,17.80
2018-09-06T21:15:06.735Z,17.80
2018-09-06T21:17:40.971Z,17.80
2018-09-06T21:20:15.679Z,17.80
2018-09-06T21:22:49.877Z,17.70
2018-09-06T21:25:24.931Z,17.70
2018-09-06T21:27:59.060Z,17.70
2018-09-06T21:30:33.282Z,17.80
2018-09-06T21:33:07.612Z,17.80
2018-09-06T21:35:41.868Z,17.70
2018-09-06T21:38:16.211Z,17.70
2018-09-06T21:40:50.532Z,17.70
2018-09-06T21:43:25.760Z,17.70
2018-09-06T21:46:00.000Z,17.70
2018-09-06T21:48:34.223Z,17.60
2018-09-06T21:51:09.104Z,17.60
2018-09-06T21:53:43.300Z,17.60
2018-09-06T21:56:17.514Z,17.60
2018-09-06T21:58:53.718Z,17.50
2018-09-06T22:01:28.777Z,17.60
2018-09-06T22:04:04.346Z,17.60
2018-09-06T22:06:39.252Z,17.60
2018-09-06T22:09:14.545Z,17.60
2018-09-06T22:11:48.989Z,17.60
2018-09-06T22:14:23.904Z,17.50
2018-09-06T22:16:58.755Z,17.50
2018-09-06T22:19:33.138Z,17.50
2018-09-06T22:22:07.718Z,17.50
2018-09-06T22:24:42.243Z,17.50
2018-09-06T22:27:17.322Z,17.50
2018-09-06T22:29:51.685Z,17.50
2018-09-06T22:32:25.960Z,17.60
2018-09-06T22:35:01.209Z,17.50
2018-09-06T22:37:35.925Z,17.50
2018-09-06T22:40:10.432Z,17.50
2018-09-06T22:42:45.187Z,17.50
2018-09-06T22:45:20.690Z,17.50
2018-09-06T22:47:54.840Z,17.50
2018-09-06T22:50:29.237Z,17.50
2018-09-06T22:53:03.577Z,17.50
2018-09-06T22:55:38.808Z,17.50
2018-09-06T22:58:12.924Z,17.50
2018-09-06T23:00:47.981Z,17.40
2018-09-06T23:03:27.952Z,17.40
2018-09-06T23:06:02.147Z,17.40
2018-09-06T23:08:36.780Z,17.50
2018-09-06T23:11:11.336Z,17.50
2018-09-06T23:13:45.494Z,17.40
2018-09-06T23:16:20.842Z,17.40
2018-09-06T23:18:55.192Z,17.40
2018-09-06T23:21:30.288Z,17.40
2018-09-06T23:24:04.481Z,17.40
2018-09-06T23:26:38.836Z,17.40
2018-09-06T23:29:14.650Z,17.40
2018-09-06T23:31:48.869Z,17.40
2018-09-06T23:34:23.624Z,17.50
2018-09-06T23:36:57.844Z,17.40
2018-09-06T23:39:32.063Z,17.50
2018-09-06T23:42:06.397Z,17.40
2018-09-06T23:44:40.806Z,17.40
2018-09-06T23:47:15.076Z,17.30
2018-09-06T23:49:50.148Z,17.30
2018-09-06T23:52:24.625Z,17.20
2018-09-06T23:54:59.441Z,17.10
2018-09-06T23:57:33.660Z,17.10
